Milton-Freewater, Oregon
Current Conditions -  °F | °C
As of 5:53 AM on Thursday 30 Oct 2014 (Local Time) from KALW Reporting Station
Moderate Fog Moderate Fog  
Wind Chill: 50°   Ceiling: 200
Heat Index: 50°   Visibility: 0.5mi
Dew Point: 49°   Wind: 5mph
Humidity: 96%   Direction: 200°SSW
Pressure: 30.06"   Gusts: NA
Location:  45.9139°N, 118.202°W
Report Text: KALW 301253Z 20004KT 1/2SM R20/3000VP6000FT FG OVC002 10/09 A3006 RMK AO2 SLP180 T01000094
Loading
Personal Weather Stations






























Interactive Weather Map
Tropical Storm Tracking
New forecast layout! Learn more

10-Day Weather Forecast

Advertisements
Track Severe Weather on mobile